createdAt,value
2018-05-15T17:31:01.420Z,16.43
2018-05-15T17:33:33.001Z,16.53
2018-05-15T17:36:03.725Z,16.51
2018-05-15T17:38:31.562Z,16.42
2018-05-15T17:40:59.935Z,16.29
2018-05-15T17:43:28.115Z,16.50
2018-05-15T17:45:56.509Z,16.34
2018-05-15T17:48:26.418Z,16.46
2018-05-15T17:50:55.365Z,16.41
2018-05-15T17:53:27.993Z,16.35
2018-05-15T17:55:58.428Z,16.31
2018-05-15T17:58:26.959Z,16.40
2018-05-15T18:00:55.251Z,16.22
2018-05-15T18:03:23.440Z,16.17
2018-05-15T18:05:52.753Z,16.21
2018-05-15T18:08:21.156Z,16.27
2018-05-15T18:10:49.740Z,16.14
2018-05-15T18:13:18.039Z,16.17
2018-05-15T18:15:46.584Z,16.16
2018-05-15T18:18:15.571Z,16.14
2018-05-15T18:20:43.899Z,16.22
2018-05-15T18:23:12.907Z,16.08
2018-05-15T18:25:41.117Z,16.07
2018-05-15T18:28:09.449Z,16.27
2018-05-15T18:30:38.032Z,16.31
2018-05-15T18:33:08.546Z,16.31
2018-05-15T18:35:36.869Z,16.33
2018-05-15T18:38:05.433Z,16.27
2018-05-15T18:40:33.596Z,16.24
2018-05-15T18:43:01.693Z,16.29
2018-05-15T18:45:29.859Z,16.22
2018-05-15T18:48:02.636Z,16.11
2018-05-15T18:50:30.374Z,16.11
2018-05-15T18:52:59.055Z,16.08
2018-05-15T18:55:27.901Z,15.94
2018-05-15T18:57:55.796Z,16.04
2018-05-15T19:00:27.254Z,16.01
2018-05-15T19:02:58.845Z,15.92
2018-05-15T19:05:26.891Z,15.94
2018-05-15T19:07:56.820Z,15.90
2018-05-15T19:10:25.939Z,15.71
2018-05-15T19:12:54.217Z,15.78
2018-05-15T19:15:21.944Z,15.68
2018-05-15T19:17:52.719Z,15.68
2018-05-15T19:20:22.314Z,15.54
2018-05-15T19:22:50.695Z,15.58
2018-05-15T19:25:21.933Z,15.47
2018-05-15T19:27:53.806Z,15.44
2018-05-15T19:30:22.585Z,15.38
2018-05-15T19:32:56.701Z,15.32
2018-05-15T19:35:45.453Z,15.49
2018-05-15T19:38:13.814Z,15.48
2018-05-15T19:40:42.975Z,15.35
2018-05-15T19:43:10.555Z,15.39
2018-05-15T19:45:38.245Z,15.29
2018-05-15T19:48:06.109Z,15.24
2018-05-15T19:50:33.752Z,15.29
2018-05-15T19:53:01.409Z,15.22
2018-05-15T19:55:29.050Z,15.29
2018-05-15T19:57:56.601Z,15.35
2018-05-15T20:00:24.100Z,15.37
2018-05-15T20:02:51.725Z,15.26
2018-05-15T20:05:19.272Z,15.06
2018-05-15T20:07:47.665Z,15.18
2018-05-15T20:10:16.879Z,15.05
2018-05-15T20:12:44.535Z,14.99
2018-05-15T20:15:12.089Z,14.85
2018-05-15T20:17:39.627Z,14.72
2018-05-15T20:20:07.211Z,14.96
2018-05-15T20:22:34.755Z,15.06
2018-05-15T20:25:02.396Z,15.09
2018-05-15T20:27:29.975Z,15.16
2018-05-15T20:29:57.531Z,15.02
2018-05-15T20:32:25.136Z,15.04
2018-05-15T20:34:52.736Z,14.87
2018-05-15T20:37:20.250Z,14.80
2018-05-15T20:39:47.787Z,14.89
2018-05-15T20:42:15.368Z,14.90
2018-05-15T20:44:42.886Z,14.93
2018-05-15T20:47:10.653Z,14.97
2018-05-15T20:49:38.202Z,14.99
2018-05-15T20:52:05.844Z,14.98
2018-05-15T20:54:33.372Z,15.00
2018-05-15T20:57:00.971Z,14.97
2018-05-15T20:59:28.563Z,14.96
2018-05-15T21:01:56.262Z,14.93
2018-05-15T21:04:23.778Z,14.94
2018-05-15T21:06:51.410Z,14.95
2018-05-15T21:09:19.068Z,14.93
2018-05-15T21:11:46.643Z,14.95
2018-05-15T21:14:14.300Z,14.82
2018-05-15T21:16:41.946Z,14.92
2018-05-15T21:19:09.510Z,14.98
2018-05-15T21:21:37.053Z,14.94
2018-05-15T21:24:04.612Z,14.79
2018-05-15T21:26:32.200Z,14.81
2018-05-15T21:28:59.799Z,14.86
2018-05-15T21:31:27.425Z,14.79
2018-05-15T21:33:54.964Z,14.70
2018-05-15T21:36:22.555Z,14.52
2018-05-15T21:38:50.131Z,14.58
2018-05-15T21:41:17.831Z,14.42
2018-05-15T21:43:45.418Z,14.45
2018-05-15T21:46:13.202Z,14.27
2018-05-15T21:48:40.816Z,14.30
2018-05-15T21:51:08.339Z,14.34
2018-05-15T21:53:35.958Z,14.38
2018-05-15T21:56:03.528Z,14.25
2018-05-15T21:58:31.026Z,14.20
2018-05-15T22:00:58.722Z,14.20
2018-05-15T22:03:26.332Z,14.24
2018-05-15T22:05:53.936Z,14.13
2018-05-15T22:08:21.444Z,14.18
2018-05-15T22:10:49.095Z,14.10
2018-05-15T22:13:28.516Z,14.00
2018-05-15T22:16:07.887Z,13.94
2018-05-15T22:18:47.319Z,14.07
2018-05-15T22:21:26.723Z,14.14
2018-05-15T22:23:54.573Z,14.12
2018-05-15T22:26:22.246Z,14.12
2018-05-15T22:28:49.794Z,14.10
2018-05-15T22:31:17.408Z,14.07
2018-05-15T22:33:44.932Z,14.05
2018-05-15T22:36:12.569Z,14.07
2018-05-15T22:38:40.187Z,14.03
2018-05-15T22:41:07.804Z,14.04
2018-05-15T22:43:35.330Z,13.99
2018-05-15T22:46:02.900Z,13.93
2018-05-15T22:48:30.399Z,13.91
2018-05-15T22:50:57.928Z,13.92
2018-05-15T22:53:25.477Z,13.96
2018-05-15T22:55:53.051Z,13.92
2018-05-15T22:58:20.595Z,13.94
2018-05-15T23:00:48.102Z,13.90
2018-05-15T23:03:15.808Z,13.80
2018-05-15T23:05:43.360Z,13.86
2018-05-15T23:08:10.871Z,13.87
2018-05-15T23:10:38.462Z,13.87
2018-05-15T23:13:05.975Z,13.87
2018-05-15T23:15:33.529Z,13.89
2018-05-15T23:18:01.074Z,13.95
2018-05-15T23:20:28.637Z,13.95
2018-05-15T23:22:56.134Z,13.98
2018-05-15T23:25:23.659Z,13.96
2018-05-15T23:27:51.201Z,13.98
2018-05-15T23:30:18.741Z,13.99
2018-05-15T23:32:46.318Z,13.99
2018-05-15T23:35:13.841Z,13.96
2018-05-15T23:37:41.350Z,13.97
2018-05-15T23:40:08.880Z,13.94
2018-05-15T23:42:36.432Z,13.89
2018-05-15T23:45:03.945Z,13.80
2018-05-15T23:47:31.448Z,13.75
2018-05-15T23:49:59.011Z,13.70
2018-05-15T23:52:26.544Z,13.81
2018-05-15T23:54:54.036Z,13.81
2018-05-15T23:57:21.585Z,13.84
2018-05-15T23:59:49.115Z,13.85
